createdAt,value
2022-10-17T00:00:31.014Z,13.80
2022-10-17T00:02:57.757Z,13.90
2022-10-17T00:05:25.031Z,15.50
2022-10-17T00:07:52.410Z,12.60
2022-10-17T00:10:20.280Z,13.80
2022-10-17T00:12:47.802Z,12.90
2022-10-17T00:15:19.436Z,12.70
2022-10-17T00:17:46.133Z,13.80
2022-10-17T00:20:13.517Z,13.70
2022-10-17T00:22:40.251Z,13.70
2022-10-17T00:25:07.200Z,12.60
2022-10-17T00:27:38.528Z,12.50
2022-10-17T00:30:07.664Z,13.80
2022-10-17T00:32:34.391Z,13.80
2022-10-17T00:37:29.709Z,13.80
2022-10-17T00:39:56.414Z,13.60
2022-10-17T00:42:25.120Z,12.80
2022-10-17T00:45:05.776Z,13.40
2022-10-17T00:47:33.097Z,15.20
2022-10-17T00:52:32.898Z,14.80
2022-10-17T00:55:18.068Z,12.70
2022-10-17T00:57:46.107Z,15.90
2022-10-17T01:00:15.180Z,13.90
2022-10-17T01:05:09.629Z,13.00
2022-10-17T01:07:38.044Z,14.00
2022-10-17T01:10:06.210Z,12.50
2022-10-17T01:12:36.966Z,12.80
2022-10-17T01:15:06.439Z,14.60
2022-10-17T01:17:48.622Z,13.30
2022-10-17T01:20:50.180Z,14.50
2022-10-17T01:23:54.315Z,16.10
2022-10-17T01:26:54.836Z,14.10
2022-10-17T01:29:40.136Z,16.00
2022-10-17T01:32:15.029Z,16.00
2022-10-17T01:35:07.958Z,12.90
2022-10-17T01:40:28.113Z,14.00
2022-10-17T01:43:05.110Z,16.00
2022-10-17T01:45:41.127Z,13.00
2022-10-17T01:48:15.176Z,14.00
2022-10-17T01:50:46.441Z,14.20
2022-10-17T01:53:34.731Z,13.60
2022-10-17T01:56:06.871Z,13.10
2022-10-17T01:58:41.330Z,14.10
2022-10-17T02:01:09.906Z,13.30
2022-10-17T02:03:37.952Z,13.10
2022-10-17T02:06:06.452Z,14.10
2022-10-17T02:08:46.963Z,14.40
2022-10-17T02:11:20.835Z,14.10
2022-10-17T02:14:06.787Z,13.70
2022-10-17T02:16:42.711Z,13.70
2022-10-17T02:19:09.697Z,13.00
2022-10-17T02:22:01.350Z,14.00
2022-10-17T02:24:36.027Z,13.10
2022-10-17T02:27:14.391Z,14.20
2022-10-17T02:29:53.903Z,14.80
2022-10-17T02:32:54.644Z,16.00
2022-10-17T02:35:25.297Z,12.70
2022-10-17T02:37:53.294Z,14.10
2022-10-17T02:40:24.190Z,12.90
2022-10-17T02:42:54.381Z,15.30
2022-10-17T02:45:24.160Z,15.00
2022-10-17T02:47:55.562Z,15.70
2022-10-17T02:50:33.278Z,13.90
2022-10-17T02:53:08.535Z,13.60
2022-10-17T02:55:43.497Z,14.80
2022-10-17T02:58:23.988Z,13.10
2022-10-17T03:00:51.611Z,14.00
2022-10-17T03:03:30.792Z,14.10
2022-10-17T03:08:28.372Z,14.50
2022-10-17T03:10:56.278Z,14.20
2022-10-17T03:13:23.377Z,13.10
2022-10-17T03:15:50.236Z,14.00
2022-10-17T03:18:16.986Z,13.90
2022-10-17T03:20:44.449Z,13.30
2022-10-17T03:25:38.364Z,14.20
2022-10-17T03:28:05.566Z,16.70
2022-10-17T03:30:33.501Z,16.80
2022-10-17T03:33:00.530Z,16.50
2022-10-17T03:35:27.636Z,13.80
2022-10-17T03:37:55.768Z,13.80
2022-10-17T03:40:23.727Z,14.50
2022-10-17T03:42:50.884Z,13.80
2022-10-17T03:45:17.903Z,14.90
2022-10-17T03:47:45.946Z,15.60
2022-10-17T03:50:12.716Z,13.90
2022-10-17T03:52:40.200Z,16.30
2022-10-17T03:55:07.184Z,13.80
2022-10-17T03:57:35.950Z,15.00
2022-10-17T04:00:05.298Z,14.90
2022-10-17T04:02:40.972Z,15.00
2022-10-17T04:05:10.813Z,14.20
2022-10-17T04:07:37.654Z,17.30
2022-10-17T04:10:05.657Z,14.90
2022-10-17T04:12:32.714Z,15.00
2022-10-17T04:14:59.664Z,14.00
2022-10-17T04:17:26.559Z,13.60
2022-10-17T04:19:53.222Z,14.10
2022-10-17T04:22:19.890Z,16.40
2022-10-17T04:24:46.854Z,17.20
2022-10-17T04:27:26.830Z,13.80
2022-10-17T04:35:00.363Z,15.10
2022-10-17T04:37:29.535Z,15.60
2022-10-17T04:39:57.218Z,14.60
2022-10-17T04:42:23.961Z,15.00
2022-10-17T04:44:52.993Z,16.50
2022-10-17T04:47:19.771Z,14.00
2022-10-17T04:49:46.490Z,14.20
2022-10-17T04:52:15.319Z,15.10
2022-10-17T04:54:44.051Z,13.90
2022-10-17T04:57:13.400Z,17.00
2022-10-17T04:59:41.794Z,15.10
2022-10-17T05:02:20.891Z,15.60
2022-10-17T05:04:47.652Z,15.10
2022-10-17T05:07:15.338Z,13.40
2022-10-17T05:09:47.600Z,17.20
2022-10-17T05:12:15.250Z,16.30
2022-10-17T05:14:44.727Z,14.70
2022-10-17T05:17:11.330Z,15.10
2022-10-17T05:19:38.529Z,13.80
2022-10-17T05:22:06.935Z,14.10
2022-10-17T05:24:33.712Z,14.20
2022-10-17T05:27:00.523Z,16.70
2022-10-17T05:29:27.183Z,15.20
2022-10-17T05:34:29.039Z,14.00
2022-10-17T05:41:52.430Z,15.30
2022-10-17T05:44:19.146Z,14.30
2022-10-17T05:46:51.214Z,15.40
2022-10-17T05:49:32.190Z,17.60
2022-10-17T05:52:00.201Z,14.70
2022-10-17T05:54:27.629Z,15.40
2022-10-17T05:56:55.687Z,14.10
2022-10-17T05:59:27.004Z,15.30
2022-10-17T06:01:58.077Z,14.10
2022-10-17T06:04:27.673Z,14.20
2022-10-17T06:06:56.158Z,14.40
2022-10-17T06:09:23.834Z,16.40
2022-10-17T06:11:53.114Z,14.00
2022-10-17T06:14:20.243Z,15.00
2022-10-17T06:16:50.088Z,14.90
2022-10-17T06:19:16.759Z,14.60
2022-10-17T06:21:43.484Z,15.50
2022-10-17T06:24:15.149Z,14.30
2022-10-17T06:26:43.057Z,15.40
2022-10-17T06:29:12.190Z,16.50
2022-10-17T06:34:13.338Z,15.50
2022-10-17T06:36:40.727Z,14.60
2022-10-17T06:39:08.547Z,15.60
2022-10-17T06:41:58.319Z,14.40
2022-10-17T06:44:40.289Z,15.90
2022-10-17T06:47:22.135Z,14.60
2022-10-17T06:49:50.969Z,15.70
2022-10-17T06:52:29.545Z,15.70
2022-10-17T06:55:16.903Z,16.00
2022-10-17T06:57:55.740Z,15.80
2022-10-17T07:00:41.551Z,14.90
2022-10-17T07:03:10.322Z,14.80
2022-10-17T07:05:36.935Z,15.90
2022-10-17T07:08:05.266Z,17.30
2022-10-17T07:10:37.989Z,14.90
2022-10-17T07:13:06.746Z,15.20
2022-10-17T07:15:34.858Z,14.70
2022-10-17T07:20:29.527Z,14.80
2022-10-17T07:22:56.580Z,18.10
2022-10-17T07:25:24.072Z,14.80
2022-10-17T07:27:58.900Z,15.00
2022-10-17T07:30:25.535Z,16.00
2022-10-17T07:33:01.508Z,16.20
2022-10-17T07:35:28.144Z,16.90
2022-10-17T07:37:55.160Z,16.00
2022-10-17T07:40:21.867Z,16.10
2022-10-17T07:42:48.589Z,16.10
2022-10-17T07:45:15.841Z,14.90
2022-10-17T07:47:43.378Z,16.10
2022-10-17T07:50:13.119Z,16.30
2022-10-17T07:52:39.829Z,17.30
2022-10-17T07:55:07.820Z,16.10
2022-10-17T07:57:34.487Z,16.90
2022-10-17T08:00:01.099Z,16.10
2022-10-17T08:02:28.419Z,16.20
2022-10-17T08:04:55.389Z,15.20
2022-10-17T08:07:25.498Z,17.70
2022-10-17T08:09:55.974Z,16.20
2022-10-17T08:12:22.847Z,16.20
2022-10-17T08:14:49.502Z,18.30
2022-10-17T08:17:16.187Z,15.00
2022-10-17T08:19:42.848Z,15.20
2022-10-17T08:22:09.543Z,14.80
2022-10-17T08:24:36.920Z,16.20
2022-10-17T08:29:39.121Z,14.90
2022-10-17T08:32:09.039Z,14.30
2022-10-17T08:34:36.539Z,17.00
2022-10-17T08:37:03.374Z,17.00
2022-10-17T08:39:30.058Z,16.10
2022-10-17T08:42:05.682Z,17.10
2022-10-17T08:44:50.330Z,18.30
2022-10-17T08:47:26.246Z,16.40
2022-10-17T08:49:57.937Z,16.90
2022-10-17T08:52:39.607Z,16.20
2022-10-17T08:55:36.956Z,16.20
2022-10-17T08:58:13.998Z,16.20
2022-10-17T09:00:46.196Z,16.30
2022-10-17T09:03:36.616Z,16.20
2022-10-17T09:06:11.547Z,15.50
2022-10-17T09:09:16.782Z,16.90
2022-10-17T09:12:13.967Z,16.30
2022-10-17T09:15:01.762Z,15.10
2022-10-17T09:17:31.289Z,16.90
2022-10-17T09:20:03.946Z,16.40
2022-10-17T09:22:37.529Z,16.40
2022-10-17T09:25:09.508Z,15.50
2022-10-17T09:27:44.495Z,15.30
2022-10-17T09:30:50.779Z,15.10
2022-10-17T09:33:28.489Z,16.50
2022-10-17T09:36:14.285Z,15.20
2022-10-17T09:38:50.317Z,16.60
2022-10-17T09:44:40.494Z,16.50
2022-10-17T09:47:18.864Z,15.50
2022-10-17T09:49:47.189Z,15.30
2022-10-17T09:52:18.497Z,15.90
2022-10-17T09:54:57.143Z,15.60
2022-10-17T09:57:24.010Z,16.60
2022-10-17T09:59:59.404Z,16.60
2022-10-17T10:02:28.872Z,16.40
2022-10-17T10:05:06.426Z,16.70
2022-10-17T10:07:36.357Z,16.80
2022-10-17T10:10:06.274Z,18.20
2022-10-17T10:12:39.007Z,16.90
2022-10-17T10:15:30.935Z,16.60
2022-10-17T10:17:57.618Z,15.60
2022-10-17T10:20:26.303Z,17.50
2022-10-17T10:23:14.226Z,16.20
2022-10-17T10:25:55.091Z,16.70
2022-10-17T10:28:25.928Z,17.40
2022-10-17T10:30:53.518Z,16.80
2022-10-17T10:33:23.412Z,15.50
2022-10-17T10:36:01.714Z,17.30
2022-10-17T10:38:29.937Z,18.20
2022-10-17T10:41:03.871Z,16.80
2022-10-17T10:43:46.280Z,16.10
2022-10-17T10:46:27.923Z,15.80
2022-10-17T10:49:03.103Z,16.90
2022-10-17T10:51:35.306Z,16.90
2022-10-17T10:54:05.728Z,16.00
2022-10-17T10:56:53.459Z,15.80
2022-10-17T10:59:31.680Z,16.80
2022-10-17T11:02:22.354Z,17.20
2022-10-17T11:05:18.599Z,19.20
2022-10-17T11:08:05.120Z,17.20
2022-10-17T11:10:44.369Z,16.50
2022-10-17T11:13:14.752Z,19.40
2022-10-17T11:15:50.132Z,17.30
2022-10-17T11:18:23.127Z,16.60
2022-10-17T11:21:05.971Z,17.60
2022-10-17T11:23:47.184Z,16.60
2022-10-17T11:26:26.676Z,17.90
2022-10-17T11:28:54.784Z,18.50
2022-10-17T11:31:24.393Z,17.40
2022-10-17T11:33:59.664Z,17.40
2022-10-17T11:36:29.923Z,17.30
2022-10-17T11:39:13.828Z,16.60
2022-10-17T11:41:53.288Z,15.80
2022-10-17T11:44:32.008Z,17.50
2022-10-17T11:47:32.275Z,17.20
2022-10-17T11:53:22.763Z,19.50
2022-10-17T11:55:52.507Z,17.20
2022-10-17T11:58:41.877Z,17.20
2022-10-17T12:01:30.219Z,17.20
2022-10-17T12:04:07.694Z,15.90
2022-10-17T12:07:12.532Z,18.30
2022-10-17T12:10:16.609Z,17.40
2022-10-17T12:12:43.383Z,17.60
2022-10-17T12:15:25.251Z,17.70
2022-10-17T12:18:02.905Z,17.70
2022-10-17T12:20:37.432Z,17.70
2022-10-17T12:23:12.377Z,17.70
2022-10-17T12:26:03.257Z,17.70
2022-10-17T12:28:42.838Z,17.70
2022-10-17T12:31:29.686Z,17.70
2022-10-17T12:34:01.928Z,17.50
2022-10-17T12:36:28.717Z,17.60
2022-10-17T12:39:04.162Z,17.50
2022-10-17T12:41:39.702Z,15.20
2022-10-17T12:44:21.557Z,17.30
2022-10-17T12:47:07.833Z,17.30
2022-10-17T12:49:37.907Z,17.30
2022-10-17T12:52:32.479Z,17.10
2022-10-17T12:55:14.216Z,16.10
2022-10-17T12:57:56.689Z,17.00
2022-10-17T13:00:33.474Z,17.00
2022-10-17T13:03:10.731Z,17.00
2022-10-17T13:05:40.975Z,17.00
2022-10-17T13:08:15.025Z,16.90
2022-10-17T13:10:46.306Z,16.10
2022-10-17T13:13:16.824Z,16.60
2022-10-17T13:15:52.366Z,16.80
2022-10-17T13:18:25.224Z,16.80
2022-10-17T13:21:02.362Z,19.00
2022-10-17T13:23:31.957Z,15.80
2022-10-17T13:26:15.996Z,18.10
2022-10-17T13:28:44.075Z,16.10
2022-10-17T13:31:38.373Z,16.80
2022-10-17T13:34:14.866Z,17.60
2022-10-17T13:36:47.838Z,17.40
2022-10-17T13:39:23.157Z,17.50
2022-10-17T13:41:59.462Z,18.30
2022-10-17T13:44:28.887Z,20.30
2022-10-17T13:46:55.605Z,17.60
2022-10-17T13:49:36.934Z,17.60
2022-10-17T13:52:06.237Z,17.70
2022-10-17T13:54:42.512Z,17.60
2022-10-17T13:57:25.318Z,17.70
2022-10-17T13:59:56.764Z,17.80
2022-10-17T14:02:27.551Z,17.80
2022-10-17T14:05:18.349Z,15.50
2022-10-17T14:08:12.106Z,16.70
2022-10-17T14:10:42.503Z,17.70
2022-10-17T14:13:23.830Z,17.70
2022-10-17T14:15:51.829Z,16.50
2022-10-17T14:18:24.266Z,17.80
2022-10-17T14:23:41.732Z,17.90
2022-10-17T14:26:19.627Z,17.90
2022-10-17T14:29:04.721Z,18.00
2022-10-17T14:31:34.398Z,18.00
2022-10-17T14:34:04.038Z,18.10
2022-10-17T14:36:52.042Z,18.20
2022-10-17T14:39:22.091Z,18.40
2022-10-17T14:41:50.294Z,18.70
2022-10-17T14:44:27.323Z,19.10
2022-10-17T14:47:05.957Z,19.40
2022-10-17T14:49:40.872Z,19.50
2022-10-17T14:52:15.148Z,20.60
2022-10-17T14:54:49.255Z,19.30
2022-10-17T14:57:23.947Z,20.00
2022-10-17T14:59:55.118Z,19.10
2022-10-17T15:02:24.149Z,18.90
2022-10-17T15:04:51.032Z,18.80
2022-10-17T15:07:18.531Z,18.40
2022-10-17T15:09:47.572Z,18.50
2022-10-17T15:12:16.825Z,18.50
2022-10-17T15:14:44.537Z,18.30
2022-10-17T15:17:31.236Z,18.30
2022-10-17T15:19:58.840Z,18.30
2022-10-17T15:22:25.605Z,18.40
2022-10-17T15:24:52.283Z,18.00
2022-10-17T15:27:20.137Z,18.70
2022-10-17T15:29:47.649Z,18.70
2022-10-17T15:32:14.948Z,18.70
2022-10-17T15:34:41.939Z,18.70
2022-10-17T15:37:20.640Z,18.80
2022-10-17T15:39:57.805Z,18.50
2022-10-17T15:42:29.583Z,18.40
2022-10-17T15:44:57.431Z,18.30
2022-10-17T15:47:28.481Z,18.10
2022-10-17T15:49:55.724Z,18.10
2022-10-17T15:52:23.520Z,17.90
2022-10-17T15:54:50.394Z,17.80
2022-10-17T15:57:27.438Z,17.60
2022-10-17T15:59:55.471Z,17.60
2022-10-17T16:02:23.687Z,17.50
2022-10-17T16:04:51.438Z,17.40
2022-10-17T16:07:19.171Z,16.30
2022-10-17T16:09:46.273Z,17.80
2022-10-17T16:12:28.864Z,17.20
2022-10-17T16:14:55.526Z,17.00
2022-10-17T16:17:22.166Z,17.00
2022-10-17T16:19:48.802Z,17.50
2022-10-17T16:22:32.451Z,16.90
2022-10-17T16:25:07.440Z,16.70
2022-10-17T16:27:34.182Z,16.80
2022-10-17T16:30:01.296Z,16.70
2022-10-17T16:32:28.139Z,16.70
2022-10-17T16:34:55.134Z,16.60
2022-10-17T16:37:21.674Z,16.50
2022-10-17T16:39:53.551Z,14.90
2022-10-17T16:42:20.814Z,16.40
2022-10-17T16:44:48.931Z,16.40
2022-10-17T16:47:16.523Z,16.40
2022-10-17T16:49:45.305Z,15.50
2022-10-17T16:52:12.641Z,19.30
2022-10-17T16:54:39.377Z,16.20
2022-10-17T16:57:05.982Z,16.30
2022-10-17T16:59:32.656Z,16.60
2022-10-17T17:01:59.293Z,18.10
2022-10-17T17:04:26.073Z,15.40
2022-10-17T17:06:52.691Z,16.10
2022-10-17T17:09:19.372Z,17.00
2022-10-17T17:11:46.030Z,16.10
2022-10-17T17:14:13.035Z,15.00
2022-10-17T17:16:39.798Z,15.00
2022-10-17T17:19:07.715Z,16.00
2022-10-17T17:21:34.996Z,14.80
2022-10-17T17:24:02.987Z,17.00
2022-10-17T17:26:32.026Z,15.90
2022-10-17T17:29:00.174Z,16.00
2022-10-17T17:31:29.548Z,15.90
2022-10-17T17:33:56.877Z,16.20
2022-10-17T17:36:29.444Z,14.90
2022-10-17T17:39:01.453Z,16.70
2022-10-17T17:41:28.547Z,15.80
2022-10-17T17:43:55.855Z,14.90
2022-10-17T17:46:23.870Z,15.80
2022-10-17T17:48:51.716Z,16.00
2022-10-17T17:51:24.295Z,15.30
2022-10-17T17:53:53.993Z,15.90
2022-10-17T17:56:23.422Z,15.80
2022-10-17T17:58:55.638Z,15.80
2022-10-17T18:01:24.295Z,15.50
2022-10-17T18:03:52.888Z,15.80
2022-10-17T18:06:21.265Z,15.80
2022-10-17T18:08:51.568Z,14.90
2022-10-17T18:11:21.203Z,16.10
2022-10-17T18:13:57.229Z,17.90
2022-10-17T18:16:25.253Z,15.30
2022-10-17T18:18:52.012Z,15.50
2022-10-17T18:21:18.766Z,14.80
2022-10-17T18:23:46.206Z,19.10
2022-10-17T18:26:14.365Z,15.70
2022-10-17T18:31:12.093Z,14.80
2022-10-17T18:33:39.316Z,15.70
2022-10-17T18:36:09.996Z,14.60
2022-10-17T18:38:37.709Z,14.70
2022-10-17T18:41:12.537Z,15.70
2022-10-17T18:43:40.965Z,15.80
2022-10-17T18:46:13.894Z,15.70
2022-10-17T18:48:44.489Z,14.90
2022-10-17T18:51:13.031Z,15.60
2022-10-17T18:53:41.690Z,15.60
2022-10-17T18:56:09.351Z,15.70
2022-10-17T18:58:37.431Z,14.70
2022-10-17T19:01:06.434Z,15.60
2022-10-17T19:03:33.343Z,15.60
2022-10-17T19:06:07.173Z,15.90
2022-10-17T19:08:34.885Z,15.60
2022-10-17T19:11:06.859Z,15.60
2022-10-17T19:13:34.009Z,15.60
2022-10-17T19:16:04.259Z,14.00
2022-10-17T19:18:30.984Z,15.50
2022-10-17T19:21:02.892Z,15.50
2022-10-17T19:23:30.446Z,15.60
2022-10-17T19:26:07.971Z,15.50
2022-10-17T19:28:36.147Z,14.90
2022-10-17T19:31:03.158Z,15.10
2022-10-17T19:33:31.665Z,15.40
2022-10-17T19:36:01.043Z,15.50
2022-10-17T19:38:28.121Z,15.50
2022-10-17T19:40:54.841Z,15.60
2022-10-17T19:43:21.827Z,15.50
2022-10-17T19:45:59.929Z,15.50
2022-10-17T19:48:27.224Z,17.60
2022-10-17T19:50:54.087Z,14.50
2022-10-17T19:53:23.354Z,14.60
2022-10-17T19:55:50.607Z,15.40
2022-10-17T19:58:17.291Z,16.00
2022-10-17T20:00:49.255Z,15.50
2022-10-17T20:03:16.236Z,14.50
2022-10-17T20:05:43.004Z,15.00
2022-10-17T20:08:09.578Z,15.50
2022-10-17T20:10:36.296Z,14.40
2022-10-17T20:13:03.453Z,15.40
2022-10-17T20:15:30.123Z,17.40
2022-10-17T20:17:57.219Z,14.70
2022-10-17T20:20:24.160Z,17.30
2022-10-17T20:22:50.780Z,14.70
2022-10-17T20:25:17.617Z,15.50
2022-10-17T20:27:44.188Z,15.50
2022-10-17T20:30:11.101Z,15.70
2022-10-17T20:32:39.918Z,15.50
2022-10-17T20:35:07.777Z,15.50
2022-10-17T20:37:41.456Z,15.20
2022-10-17T20:40:33.655Z,16.30
2022-10-17T20:42:56.611Z,15.60
2022-10-17T20:45:37.441Z,15.60
2022-10-17T20:48:15.048Z,14.40
2022-10-17T20:50:43.272Z,11.60
2022-10-17T20:53:35.621Z,15.20
2022-10-17T20:56:06.694Z,17.80
2022-10-17T20:58:33.765Z,14.50
2022-10-17T21:01:09.040Z,15.60
2022-10-17T21:03:39.863Z,15.60
2022-10-17T21:06:11.220Z,15.60
2022-10-17T21:08:37.949Z,15.60
2022-10-17T21:11:15.026Z,16.20
2022-10-17T21:13:42.027Z,15.90
2022-10-17T21:16:18.836Z,15.00
2022-10-17T21:18:46.216Z,14.30
2022-10-17T21:21:14.885Z,14.70
2022-10-17T21:23:43.360Z,15.60
2022-10-17T21:26:12.570Z,15.60
2022-10-17T21:28:40.657Z,16.90
2022-10-17T21:31:16.168Z,14.70
2022-10-17T21:33:46.054Z,14.30
2022-10-17T21:36:13.712Z,15.50
2022-10-17T21:38:40.791Z,15.60
2022-10-17T21:41:09.092Z,15.80
2022-10-17T21:43:36.963Z,14.90
2022-10-17T21:46:05.520Z,14.40
2022-10-17T21:48:33.348Z,14.70
2022-10-17T21:51:04.036Z,15.70
2022-10-17T21:53:31.370Z,15.40
2022-10-17T21:56:02.585Z,14.60
2022-10-17T21:58:29.550Z,17.00
2022-10-17T22:01:17.110Z,14.50
2022-10-17T22:03:48.375Z,14.60
2022-10-17T22:06:38.873Z,15.20
2022-10-17T22:09:06.317Z,16.20
2022-10-17T22:11:34.995Z,15.90
2022-10-17T22:14:04.371Z,15.30
2022-10-17T22:16:31.023Z,14.20
2022-10-17T22:19:03.166Z,15.20
2022-10-17T22:21:35.066Z,15.60
2022-10-17T22:24:05.437Z,14.50
2022-10-17T22:26:33.475Z,14.80
2022-10-17T22:29:00.611Z,15.10
2022-10-17T22:31:27.275Z,14.00
2022-10-17T22:36:21.152Z,14.90
2022-10-17T22:38:47.763Z,14.90
2022-10-17T22:41:14.450Z,14.10
2022-10-17T22:43:41.088Z,14.10
2022-10-17T22:46:09.579Z,14.90
2022-10-17T22:48:37.050Z,16.00
2022-10-17T22:51:03.704Z,14.90
2022-10-17T22:53:30.372Z,14.90
2022-10-17T22:56:00.115Z,14.90
2022-10-17T22:58:28.652Z,15.40
2022-10-17T23:00:55.839Z,16.30
2022-10-17T23:03:24.278Z,14.00
2022-10-17T23:05:51.179Z,14.80
2022-10-17T23:08:18.801Z,14.50
2022-10-17T23:10:46.672Z,14.70
2022-10-17T23:13:14.079Z,13.60
2022-10-17T23:15:41.295Z,14.70
2022-10-17T23:18:09.646Z,14.60
2022-10-17T23:20:37.419Z,14.70
2022-10-17T23:23:04.934Z,14.70
2022-10-17T23:25:33.713Z,14.10
2022-10-17T23:30:27.798Z,14.50
2022-10-17T23:32:54.453Z,13.80
2022-10-17T23:35:21.108Z,13.90
2022-10-17T23:37:47.727Z,15.50
2022-10-17T23:40:14.392Z,13.60
2022-10-17T23:42:41.090Z,13.80
2022-10-17T23:45:08.391Z,14.50
2022-10-17T23:47:35.124Z,14.60
2022-10-17T23:50:01.884Z,13.80
2022-10-17T23:52:28.740Z,16.10
2022-10-17T23:54:55.367Z,14.50
2022-10-17T23:57:22.196Z,14.60
2022-10-17T23:59:48.923Z,13.80
